Time;durP1;ratioP1;P1;durP2;ratioP2;P2;SDS_P1;SDS_P2;PMS_P1;PMS_P2;Temp;Humidity;BMP_temperature;BMP_pressure;BME280_temperature;BME280_humidity;BME280_pressure;Samples;Min_cycle;Max_cycle;Signal;HPM_P1;HPM_P2
2021/09/24 00:00:26;;;;;;;5.80;2.58;;;;;;;13.97;94.50;101807.47;4974857;28;20129;-73
2021/09/24 00:02:53;;;;;;;10.15;3.00;;;;;;;13.94;93.93;101814.75;4973341;28;20050;-74
2021/09/24 00:05:22;;;;;;;7.93;3.03;;;;;;;13.89;94.56;101808.63;4970541;28;20498;-73
2021/09/24 00:07:51;;;;;;;8.60;2.70;;;;;;;13.87;94.95;101807.81;4974028;28;20050;-73
2021/09/24 00:10:20;;;;;;;5.97;2.70;;;;;;;13.85;94.51;101801.63;4970519;28;20107;-73
2021/09/24 00:12:48;;;;;;;7.20;2.85;;;;;;;13.79;94.70;101806.25;4970137;28;20487;-74
2021/09/24 00:15:18;;;;;;;6.97;2.55;;;;;;;13.72;94.07;101801.97;4974648;28;20490;-73
2021/09/24 00:17:46;;;;;;;7.25;2.70;;;;;;;13.67;94.26;101793.19;4972805;28;20099;-73
2021/09/24 00:20:14;;;;;;;6.68;3.00;;;;;;;13.63;94.73;101791.53;4974991;28;20088;-73
2021/09/24 00:22:43;;;;;;;8.70;3.30;;;;;;;13.62;95.53;101801.38;4970551;28;20058;-73
2021/09/24 00:25:11;;;;;;;6.53;2.88;;;;;;;13.62;94.95;101797.81;4974938;28;20157;-73
2021/09/24 00:27:40;;;;;;;5.82;2.70;;;;;;;13.60;95.31;101794.28;4973310;28;20050;-74
2021/09/24 00:30:09;;;;;;;7.45;2.60;;;;;;;13.55;95.54;101797.13;4971656;28;21242;-74
2021/09/24 00:32:37;;;;;;;9.27;2.78;;;;;;;13.51;95.55;101794.59;4974452;28;20043;-73
2021/09/24 00:35:06;;;;;;;8.52;2.95;;;;;;;13.45;96.27;101792.97;4968503;28;20565;-73
2021/09/24 00:37:34;;;;;;;7.40;3.28;;;;;;;13.37;95.33;101779.78;4971349;28;20554;-73
2021/09/24 00:40:02;;;;;;;7.43;2.72;;;;;;;13.37;96.17;101795.84;4971114;28;20054;-74
2021/09/24 00:42:29;;;;;;;9.15;2.80;;;;;;;13.39;96.80;101793.13;4973482;28;20087;-73
2021/09/24 00:44:59;;;;;;;6.75;2.67;;;;;;;13.38;97.86;101788.69;4975059;28;20373;-72
2021/09/24 00:47:27;;;;;;;8.00;3.30;;;;;;;13.37;97.44;101786.94;4969558;28;20549;-72
2021/09/24 00:49:54;;;;;;;7.50;3.10;;;;;;;13.34;97.67;101781.66;4974964;28;20053;-73
2021/09/24 00:52:22;;;;;;;6.28;2.83;;;;;;;13.31;97.20;101785.25;4974089;28;20410;-73
2021/09/24 00:54:52;;;;;;;8.10;3.20;;;;;;;13.31;98.22;101784.38;4968564;28;20050;-74
2021/09/24 00:57:21;;;;;;;8.90;3.03;;;;;;;13.31;98.12;101781.72;4971433;28;20090;-74
2021/09/24 00:59:49;;;;;;;7.68;2.80;;;;;;;13.29;98.76;101779.06;4972068;28;20502;-73
2021/09/24 01:02:19;;;;;;;7.45;2.92;;;;;;;13.25;97.91;101778.28;4969913;28;20054;-74
2021/09/24 01:04:48;;;;;;;9.80;3.03;;;;;;;13.23;97.80;101774.78;4971631;28;20452;-74
2021/09/24 01:07:16;;;;;;;9.13;3.40;;;;;;;13.21;97.53;101781.97;4969543;28;20636;-74
2021/09/24 01:09:44;;;;;;;10.25;3.08;;;;;;;13.22;98.16;101770.31;4973476;28;20105;-75
2021/09/24 01:12:12;;;;;;;7.70;2.88;;;;;;;13.26;98.38;101777.38;4969760;28;20100;-73
2021/09/24 01:14:40;;;;;;;8.70;3.03;;;;;;;13.26;98.07;101768.44;4975606;28;20395;-73
2021/09/24 01:17:08;;;;;;;6.65;2.90;;;;;;;13.21;98.77;101765.00;4972562;28;20609;-69
2021/09/24 01:19:38;;;;;;;7.50;2.78;;;;;;;13.17;98.85;101768.72;4970392;28;20283;-69
2021/09/24 01:22:07;;;;;;;6.70;2.70;;;;;;;13.12;98.01;101760.78;4969636;28;20098;-70
2021/09/24 01:24:35;;;;;;;9.65;2.88;;;;;;;13.08;98.80;101767.16;4969343;28;20086;-69
2021/09/24 01:27:03;;;;;;;8.80;3.33;;;;;;;13.05;99.28;101759.22;4973998;28;20053;-69
2021/09/24 01:29:31;;;;;;;10.98;3.45;;;;;;;13.01;98.25;101753.06;4968428;28;20053;-70
2021/09/24 01:31:59;;;;;;;9.25;2.90;;;;;;;12.97;98.77;101754.03;4968649;28;20638;-69
2021/09/24 01:34:27;;;;;;;7.07;2.97;;;;;;;12.93;98.97;101751.50;4972066;28;20073;-68
2021/09/24 01:36:54;;;;;;;9.20;3.28;;;;;;;12.90;98.94;101755.13;4970013;28;20054;-69
2021/09/24 01:39:24;;;;;;;7.82;3.30;;;;;;;12.85;99.64;101757.94;4971415;28;20073;-71
2021/09/24 01:41:52;;;;;;;8.48;3.15;;;;;;;12.84;100.00;101753.53;4971679;28;20062;-69
2021/09/24 01:44:20;;;;;;;11.50;3.58;;;;;;;12.80;99.70;101749.16;4970550;28;20522;-69
2021/09/24 01:46:48;;;;;;;7.20;3.10;;;;;;;12.75;98.81;101742.16;4968155;28;20062;-69
2021/09/24 01:49:16;;;;;;;6.15;3.00;;;;;;;12.71;99.54;101744.91;4972704;28;20418;-70
2021/09/24 01:51:45;;;;;;;8.18;2.95;;;;;;;12.67;99.53;101740.56;4972576;28;20133;-68
2021/09/24 01:54:14;;;;;;;8.10;3.13;;;;;;;12.63;99.52;101736.25;4971289;28;20133;-71
2021/09/24 01:56:43;;;;;;;8.07;3.10;;;;;;;12.64;100.00;101734.44;4971226;28;20218;-70
2021/09/24 01:59:11;;;;;;;8.65;2.80;;;;;;;12.60;100.00;101736.31;4971011;28;20061;-70
2021/09/24 02:01:40;;;;;;;7.05;3.08;;;;;;;12.58;99.92;101729.22;4968461;28;20098;-73
2021/09/24 02:04:08;;;;;;;8.32;3.30;;;;;;;12.54;100.00;101723.06;4970788;28;20054;-69
2021/09/24 02:06:36;;;;;;;9.65;3.20;;;;;;;12.51;100.00;101720.47;4971916;28;20445;-71
2021/09/24 02:09:04;;;;;;;7.32;3.03;;;;;;;12.48;100.00;101717.88;4971242;28;20109;-70
2021/09/24 02:11:32;;;;;;;6.80;3.15;;;;;;;12.47;100.00;101717.00;4973419;28;20050;-69
2021/09/24 02:14:01;;;;;;;10.07;3.35;;;;;;;12.45;100.00;101707.28;4972446;28;20058;-69
2021/09/24 02:16:29;;;;;;;8.07;3.58;;;;;;;12.41;100.00;101706.47;4973269;28;20500;-69
2021/09/24 02:18:57;;;;;;;11.63;3.83;;;;;;;12.41;100.00;101708.25;4970795;28;20160;-70
2021/09/24 02:21:25;;;;;;;10.88;3.70;;;;;;;12.39;100.00;101710.97;4968195;28;20061;-71
2021/09/24 02:23:53;;;;;;;7.63;4.45;;;;;;;12.38;100.00;101711.00;4972544;28;20062;-69
2021/09/24 02:26:20;;;;;;;9.73;4.15;;;;;;;12.32;100.00;101710.25;4975348;28;20054;-70
2021/09/24 02:29:10;;;;;;;7.82;3.67;;;;;;;12.29;100.00;101710.34;4976801;28;20096;-70
2021/09/24 02:31:38;;;;;;;7.70;3.90;;;;;;;12.29;100.00;101707.66;4975248;28;20201;-70
2021/09/24 02:34:06;;;;;;;9.68;3.78;;;;;;;12.26;100.00;101697.03;4974092;28;20455;-69
2021/09/24 02:36:34;;;;;;;6.60;3.50;;;;;;;12.23;100.00;101705.13;4974164;28;20053;-70
2021/09/24 02:39:02;;;;;;;10.10;3.75;;;;;;;12.23;100.00;101705.13;4976157;28;20530;-71
2021/09/24 02:41:30;;;;;;;10.35;3.55;;;;;;;12.22;100.00;101702.50;4977189;28;20068;-70
2021/09/24 02:43:58;;;;;;;8.35;3.50;;;;;;;12.25;100.00;101710.44;4978211;28;20065;-69
2021/09/24 02:46:27;;;;;;;8.30;3.70;;;;;;;12.24;100.00;101706.00;4972462;28;21343;-70
2021/09/24 02:48:55;;;;;;;13.70;3.75;;;;;;;12.18;100.00;101703.50;4973265;28;20557;-70
2021/09/24 02:51:23;;;;;;;9.43;3.53;;;;;;;12.13;100.00;101701.81;4974792;28;20558;-70
2021/09/24 02:53:51;;;;;;;10.50;3.88;;;;;;;12.12;100.00;101702.72;4974209;28;20363;-70
2021/09/24 02:56:20;;;;;;;9.40;3.80;;;;;;;12.11;100.00;101697.41;4973412;28;20069;-69
2021/09/24 02:58:48;;;;;;;7.63;3.47;;;;;;;12.08;100.00;101706.38;4973757;28;20054;-69
2021/09/24 03:01:16;;;;;;;11.30;3.88;;;;;;;12.10;100.00;101709.03;4974414;28;20517;-69
2021/09/24 03:03:46;;;;;;;8.68;3.47;;;;;;;12.09;100.00;101704.63;4973890;28;20133;-70
2021/09/24 03:06:14;;;;;;;7.97;3.83;;;;;;;12.08;100.00;101706.38;4973785;28;20054;-70
2021/09/24 03:08:42;;;;;;;7.97;4.22;;;;;;;12.06;100.00;101700.19;4976896;28;20054;-72
2021/09/24 03:11:11;;;;;;;7.70;3.55;;;;;;;12.05;100.00;101708.25;4972724;28;20346;-71
2021/09/24 03:13:39;;;;;;;9.00;3.22;;;;;;;12.06;100.00;101707.34;4973243;28;20140;-74
2021/09/24 03:16:07;;;;;;;8.95;3.63;;;;;;;12.09;100.00;101700.13;4978105;28;21044;-69
2021/09/24 03:18:35;;;;;;;8.70;3.83;;;;;;;12.16;100.00;101703.53;4974336;28;20101;-72
2021/09/24 03:21:04;;;;;;;10.38;3.78;;;;;;;12.22;100.00;101706.03;4976818;28;20074;-73
2021/09/24 03:23:32;;;;;;;6.25;3.25;;;;;;;12.30;100.00;101698.69;4974168;28;20564;-73
2021/09/24 03:26:00;;;;;;;6.05;3.25;;;;;;;12.33;100.00;101687.91;4974556;28;20069;-73
2021/09/24 03:28:28;;;;;;;6.40;3.38;;;;;;;12.36;100.00;101691.44;4974747;28;20105;-74
2021/09/24 03:30:56;;;;;;;9.48;3.95;;;;;;;12.41;100.00;101693.09;4971812;28;20076;-74
2021/09/24 03:33:23;;;;;;;13.23;4.38;;;;;;;12.47;100.00;101684.00;4974735;28;20050;-73
2021/09/24 03:35:51;;;;;;;13.27;4.38;;;;;;;12.53;100.00;101689.19;4972697;28;20046;-74
2021/09/24 03:38:20;;;;;;;10.88;3.88;;;;;;;12.58;100.00;101683.72;4971354;28;20146;-73
2021/09/24 03:40:48;;;;;;;7.40;3.40;;;;;;;12.63;100.00;101685.38;4977479;28;20482;-73
2021/09/24 03:43:16;;;;;;;10.35;3.30;;;;;;;12.72;100.00;101676.19;4970527;28;20157;-74
2021/09/24 03:45:44;;;;;;;14.48;5.85;;;;;;;12.76;100.00;101675.19;4974541;28;20058;-73
2021/09/24 03:48:12;;;;;;;9.98;3.60;;;;;;;12.81;100.00;101675.06;4972798;28;20050;-73
2021/09/24 03:50:40;;;;;;;7.60;3.50;;;;;;;12.81;100.00;101670.56;4972267;28;20054;-74
2021/09/24 03:53:07;;;;;;;10.32;3.67;;;;;;;12.84;100.00;101674.97;4973730;28;20610;-73
2021/09/24 03:55:37;;;;;;;10.60;4.32;;;;;;;12.89;100.00;101675.72;4973108;28;20395;-73
2021/09/24 03:58:04;;;;;;;10.25;3.88;;;;;;;12.95;100.00;101674.66;4972542;28;20782;-73
2021/09/24 04:00:32;;;;;;;7.40;3.72;;;;;;;12.98;100.00;101678.13;4975610;28;20062;-73
2021/09/24 04:03:00;;;;;;;7.95;3.80;;;;;;;13.02;100.00;101681.59;4971314;28;20105;-73
2021/09/24 04:05:28;;;;;;;8.73;3.85;;;;;;;13.11;100.00;101678.66;4974378;28;20058;-74
2021/09/24 04:07:56;;;;;;;9.50;4.72;;;;;;;13.19;100.00;101681.09;4970643;28;20136;-74
2021/09/24 04:10:24;;;;;;;12.32;4.50;;;;;;;13.21;100.00;101676.56;4975371;28;20061;-69
2021/09/24 04:12:53;;;;;;;11.45;4.78;;;;;;;13.25;100.00;101673.75;4975223;28;20125;-73
2021/09/24 04:15:21;;;;;;;9.13;4.00;;;;;;;13.29;100.00;101673.66;4970175;28;20432;-73
2021/09/24 04:17:49;;;;;;;9.15;4.10;;;;;;;13.32;100.00;101685.22;4977087;28;20050;-74
2021/09/24 07:07:15;;;;;;;44.00;20.70;;;;;;;16.31;100.00;101676.22;4990381;28;20056;-74
2021/09/24 07:09:43;;;;;;;44.85;21.02;;;;;;;16.44;100.00;101672.94;4936653;28;20172;-74
2021/09/24 07:12:11;;;;;;;44.75;21.25;;;;;;;16.58;100.00;101676.84;4917392;28;20308;-76
2021/09/24 07:14:39;;;;;;;44.03;20.67;;;;;;;16.69;100.00;101682.66;4918542;28;20161;-74
2021/09/24 07:17:08;;;;;;;47.08;23.67;;;;;;;16.70;100.00;101683.50;4918663;28;20438;-74
2021/09/24 07:19:36;;;;;;;39.25;19.63;;;;;;;16.78;100.00;101673.28;4918425;28;20058;-74
2021/09/24 07:22:04;;;;;;;40.22;18.73;;;;;;;16.80;100.00;101679.47;4916604;28;20394;-75
2021/09/24 07:24:58;;;;;;;34.42;18.77;;;;;;;16.80;100.00;101674.97;4921426;28;20177;-74
2021/09/24 07:27:28;;;;;;;30.67;16.25;;;;;;;16.84;100.00;101677.50;4920239;28;20297;-74
2021/09/24 07:29:56;;;;;;;32.15;16.73;;;;;;;16.85;100.00;101682.88;4963646;28;20494;-74
2021/09/24 07:32:24;;;;;;;27.20;14.50;;;;;;;16.98;100.00;101680.50;4981961;28;20061;-74
2021/09/24 07:34:53;;;;;;;30.08;14.82;;;;;;;17.11;100.00;101687.09;4983523;28;20140;-74
2021/09/24 07:37:21;;;;;;;25.55;13.82;;;;;;;17.26;100.00;101685.47;4981848;28;20050;-74
2021/09/24 07:39:49;;;;;;;29.10;14.60;;;;;;;17.28;100.00;101691.69;4999620;28;20057;-74
2021/09/24 07:45:59;;;;;;;24.27;12.95;;;;;;;17.39;100.00;101684.91;4998159;28;20148;-73
2021/09/24 07:48:27;;;;;;;28.50;14.52;;;;;;;17.72;99.70;101687.81;4994375;28;20224;-74
2021/09/24 07:50:55;;;;;;;22.35;13.13;;;;;;;17.91;98.66;101682.41;4997212;28;20049;-69
2021/09/24 07:53:22;;;;;;;30.58;14.73;;;;;;;17.81;98.65;101689.19;4993621;28;20587;-69
2021/09/24 07:55:51;;;;;;;24.90;13.73;;;;;;;17.92;97.29;101693.13;4998923;28;20061;-67
2021/09/24 07:58:19;;;;;;;28.80;14.32;;;;;;;18.17;95.60;101697.31;4994625;28;20050;-67
2021/09/24 08:00:47;;;;;;;25.85;13.68;;;;;;;18.65;94.14;101686.75;4993733;28;20058;-70
2021/09/24 08:03:16;;;;;;;30.08;13.68;;;;;;;19.10;92.06;101682.56;4994040;28;20115;-68
2021/09/24 08:05:44;;;;;;;22.15;12.07;;;;;;;19.27;90.07;101675.38;4996690;28;20128;-67
2021/09/24 08:08:12;;;;;;;21.73;12.60;;;;;;;19.53;89.33;101674.78;4999805;28;20057;-68
2021/09/24 08:10:40;;;;;;;21.55;12.30;;;;;;;19.42;88.79;101675.38;4988687;28;21016;-68
2021/09/24 08:13:09;;;;;;;20.98;12.15;;;;;;;19.44;87.14;101682.53;5000350;28;20168;-67
2021/09/24 08:15:42;;;;;;;22.85;12.18;;;;;;;19.54;87.04;101681.06;4988661;28;20455;-68
2021/09/24 08:18:37;;;;;;;24.02;11.32;;;;;;;19.49;88.18;101678.59;5003419;28;20452;-67
2021/09/24 08:21:07;;;;;;;20.85;11.38;;;;;;;19.25;88.07;101694.38;4998167;28;20131;-68
2021/09/24 08:23:35;;;;;;;22.60;11.13;;;;;;;19.38;87.46;101681.94;4998921;28;20565;-68
2021/09/24 08:26:05;;;;;;;21.83;11.77;;;;;;;19.15;87.57;101685.88;5005051;28;20057;-65
2021/09/24 08:28:34;;;;;;;20.38;12.18;;;;;;;19.25;87.72;101680.84;5000200;28;20161;-67
2021/09/24 08:31:02;;;;;;;16.98;10.07;;;;;;;19.19;86.91;101683.91;5003164;28;20057;-67
2021/09/24 08:33:30;;;;;;;21.50;10.23;;;;;;;19.46;86.67;101683.31;5001815;28;21091;-67
2021/09/24 08:36:00;;;;;;;18.95;9.68;;;;;;;19.44;85.38;101680.69;5002782;28;20136;-67
2021/09/24 08:38:28;;;;;;;18.35;10.45;;;;;;;19.34;85.17;101680.38;5000435;28;21243;-69
2021/09/24 08:40:56;;;;;;;18.83;10.25;;;;;;;18.97;87.00;101679.69;5000415;28;20064;-67
2021/09/24 08:43:24;;;;;;;15.27;10.18;;;;;;;19.46;85.74;101681.50;4993462;28;20059;-68
2021/09/24 08:45:53;;;;;;;17.40;10.35;;;;;;;19.36;84.63;101681.16;4999782;28;20068;-68
2021/09/24 08:48:21;;;;;;;19.33;9.32;;;;;;;19.46;84.44;101677.91;4999993;28;20059;-68
2021/09/24 08:50:51;;;;;;;14.68;8.77;;;;;;;19.63;84.65;101676.97;5002600;28;20416;-68
2021/09/24 08:53:21;;;;;;;21.50;9.80;;;;;;;19.41;84.86;101683.59;4998548;28;20345;-68
2021/09/24 08:55:49;;;;;;;16.17;9.23;;;;;;;19.60;83.30;101678.88;5000202;28;20663;-68
2021/09/24 08:58:18;;;;;;;20.38;9.43;;;;;;;19.99;83.82;101686.66;4999104;28;20060;-68
2021/09/24 09:00:47;;;;;;;16.17;9.50;;;;;;;20.33;80.31;101688.28;5000283;28;20061;-68
2021/09/24 09:03:18;;;;;;;15.85;9.18;;;;;;;20.36;78.97;101677.22;5003137;28;20064;-68
2021/09/24 09:09:37;;;;;;;14.05;8.40;;;;;;;20.06;79.75;101682.66;4993763;28;20049;-68
2021/09/24 09:12:16;;;;;;;15.45;8.65;;;;;;;19.70;81.21;101684.66;5002103;28;20090;-68
2021/09/24 09:14:58;;;;;;;17.00;7.82;;;;;;;19.68;82.25;101681.16;5001299;28;21742;-73
2021/09/24 09:17:30;;;;;;;14.52;7.88;;;;;;;19.74;81.87;101675.41;4998754;28;20239;-74
2021/09/24 09:20:24;;;;;;;17.17;7.75;;;;;;;20.57;79.44;101680.50;5001418;28;20107;-74
2021/09/24 09:23:05;;;;;;;16.63;7.55;;;;;;;20.99;77.51;101678.81;5001800;28;20055;-75
2021/09/24 09:25:37;;;;;;;12.90;7.07;;;;;;;21.15;75.70;101676.03;4999330;28;20559;-74
2021/09/24 09:28:06;;;;;;;14.52;6.43;;;;;;;21.37;74.63;101675.50;4999373;28;20053;-74
2021/09/24 09:30:36;;;;;;;18.58;6.80;;;;;;;21.08;74.82;101669.25;4998481;28;20042;-74
2021/09/24 09:33:11;;;;;;;11.75;5.57;;;;;;;20.77;73.98;101673.88;5004809;28;20050;-74
2021/09/24 09:35:41;;;;;;;14.85;6.40;;;;;;;20.03;75.16;101670.16;4999047;28;20127;-74
2021/09/24 09:38:18;;;;;;;11.55;5.60;;;;;;;20.12;75.09;101672.28;5002558;28;20174;-75
2021/09/24 09:40:52;;;;;;;10.02;5.28;;;;;;;19.75;74.02;101671.75;5002885;28;20487;-74
2021/09/24 09:43:23;;;;;;;10.15;5.50;;;;;;;19.64;75.20;101667.88;5003448;28;20107;-74
2021/09/24 09:45:51;;;;;;;11.93;5.45;;;;;;;19.87;75.18;101667.47;5001574;28;20053;-74
2021/09/24 09:48:19;;;;;;;12.98;6.22;;;;;;;20.11;74.50;101661.59;5001705;28;20054;-69
2021/09/24 09:50:47;;;;;;;11.18;6.22;;;;;;;20.40;73.85;101662.53;5003023;28;20055;-68
2021/09/24 09:53:16;;;;;;;11.80;7.10;;;;;;;20.20;74.17;101662.88;5000645;28;20195;-69
2021/09/24 09:56:09;;;;;;;14.75;7.13;;;;;;;19.67;76.82;101654.19;5001885;28;20090;-69
2021/09/24 09:58:42;;;;;;;17.75;8.55;;;;;;;19.51;77.94;101652.34;4997588;28;20244;-69
2021/09/24 10:01:12;;;;;;;19.13;9.05;;;;;;;19.29;79.57;101644.56;4996879;28;20081;-69
2021/09/24 10:03:42;;;;;;;14.85;7.55;;;;;;;19.84;78.44;101645.97;5002007;28;20073;-69
2021/09/24 10:06:23;;;;;;;10.95;7.35;;;;;;;20.64;75.26;101637.63;5003421;28;20137;-69
2021/09/24 10:09:22;;;;;;;13.45;6.85;;;;;;;21.10;72.71;101639.31;5000883;28;20122;-68
2021/09/24 10:11:52;;;;;;;11.25;6.65;;;;;;;20.90;72.05;101638.72;4997727;28;20136;-69
2021/09/24 10:14:21;;;;;;;14.02;7.30;;;;;;;21.19;70.83;101633.28;4999916;28;20076;-68
2021/09/24 10:16:48;;;;;;;14.75;7.57;;;;;;;21.54;70.00;101641.88;4998856;28;20073;-69
2021/09/24 10:19:17;;;;;;;13.77;7.47;;;;;;;21.93;69.13;101642.00;5001293;28;20288;-69
2021/09/24 10:21:53;;;;;;;13.13;7.57;;;;;;;21.69;68.62;101633.66;4999437;28;20057;-69
2021/09/24 10:24:21;;;;;;;12.52;7.50;;;;;;;21.52;68.57;101632.06;4996515;28;20060;-69
2021/09/24 10:26:56;;;;;;;12.80;6.53;;;;;;;21.79;67.84;101632.97;4998639;28;20046;-69
2021/09/24 10:29:29;;;;;;;15.40;8.20;;;;;;;21.72;68.41;101626.19;4995500;28;20204;-74
2021/09/24 10:32:11;;;;;;;;;;;;;;;21.76;67.59;101622.31;4993682;28;20893;-74
2021/09/24 10:34:54;;;;;;;11.68;6.30;;;;;;;22.41;65.71;101633.34;4992166;28;19932;-75
2021/09/24 10:37:24;;;;;;;16.02;6.68;;;;;;;21.74;65.83;101632.41;4998387;28;20049;-74
2021/09/24 10:39:58;;;;;;;10.13;5.65;;;;;;;21.52;66.00;101635.69;4995552;28;20041;-74
2021/09/24 10:42:47;;;;;;;9.18;5.25;;;;;;;20.85;66.73;101640.84;4998847;28;20548;-74
2021/09/24 10:45:22;;;;;;;11.55;4.68;;;;;;;21.18;67.26;101631.50;4993678;28;20074;-75
2021/09/24 10:48:06;;;;;;;11.07;4.93;;;;;;;21.61;65.75;101634.19;4996520;28;20054;-74
2021/09/24 10:50:48;;;;;;;;;;;;;;;21.36;66.13;101646.63;5001303;28;20053;-74
2021/09/24 10:53:18;;;;;;;7.43;4.40;;;;;;;20.66;67.64;101641.97;4998939;28;20594;-73
2021/09/24 10:55:48;;;;;;;6.80;3.90;;;;;;;20.70;68.67;101637.25;5001390;28;20136;-75
2021/09/24 10:58:38;;;;;;;8.85;4.10;;;;;;;21.04;67.43;101638.72;4999083;28;20127;-75
2021/09/24 11:01:11;;;;;;;10.52;4.57;;;;;;;21.75;65.37;101636.00;5003125;28;20061;-69
2021/09/24 11:03:52;;;;;;;;;;;;;;;22.12;63.99;101645.25;4998492;28;20135;-68
2021/09/24 11:06:35;;;;;;;8.50;3.80;;;;;;;21.97;63.33;101638.13;5000098;28;20293;-68
2021/09/24 11:09:04;;;;;;;7.70;3.23;;;;;;;21.50;64.38;101637.59;4996791;28;20755;-68
2021/09/24 11:12:03;;;;;;;7.15;3.80;;;;;;;21.34;64.53;101628.69;5002577;28;20680;-69
2021/09/24 11:14:38;;;;;;;8.90;3.90;;;;;;;21.05;66.17;101628.75;4998345;28;20038;-69
2021/09/24 11:17:09;;;;;;;9.95;4.00;;;;;;;20.94;66.38;101631.25;4999526;28;20064;-69
2021/09/24 11:19:41;;;;;;;9.18;3.72;;;;;;;20.92;67.05;101631.34;5002911;28;20060;-69
2021/09/24 11:22:18;;;;;;;9.20;3.47;;;;;;;20.75;66.78;101637.81;5001187;28;20168;-69
2021/09/24 11:25:04;;;;;;;5.03;2.88;;;;;;;20.82;67.07;101625.66;5002350;28;20060;-68
2021/09/24 11:27:58;;;;;;;11.55;3.45;;;;;;;20.80;66.89;101624.00;5005347;28;20168;-68
2021/09/24 11:30:28;;;;;;;14.02;3.78;;;;;;;20.65;67.70;101621.28;5002895;28;20127;-73
2021/09/24 11:32:58;;;;;;;6.25;3.33;;;;;;;20.92;67.85;101620.50;5000285;28;20053;-74
2021/09/24 11:35:31;;;;;;;5.63;3.17;;;;;;;20.75;67.88;101618.84;5000137;28;20100;-73
2021/09/24 11:38:16;;;;;;;5.90;3.20;;;;;;;20.83;67.45;101612.94;5001362;28;20479;-74
2021/09/24 11:40:53;;;;;;;8.30;3.40;;;;;;;21.52;66.37;101615.78;5000281;28;20517;-73
2021/09/24 11:43:26;;;;;;;8.35;3.33;;;;;;;22.08;63.79;101611.09;5004231;28;20054;-73
2021/09/24 11:45:58;;;;;;;5.60;3.00;;;;;;;22.39;62.28;101614.47;5004604;28;20092;-74
2021/09/24 11:48:30;;;;;;;6.75;3.00;;;;;;;22.56;60.44;101610.56;5005934;28;20435;-75
2021/09/24 11:51:07;;;;;;;5.18;2.45;;;;;;;22.57;58.67;101607.69;4998530;28;20144;-70
2021/09/24 11:53:47;;;;;;;5.70;2.30;;;;;;;22.67;57.28;101607.06;5000037;28;20049;-70
2021/09/24 11:56:19;;;;;;;5.25;2.58;;;;;;;22.20;58.57;101623.84;4994629;28;20061;-70
2021/09/24 11:59:13;;;;;;;4.80;2.30;;;;;;;21.45;60.88;101610.75;5003407;28;20179;-69
2021/09/24 12:01:44;;;;;;;5.07;2.30;;;;;;;21.33;61.46;101624.22;5011610;28;20052;-69
2021/09/24 12:04:13;;;;;;;4.05;2.58;;;;;;;21.21;61.32;101604.19;5015363;28;20053;-70
2021/09/24 12:07:11;;;;;;;8.20;2.55;;;;;;;21.40;61.12;101604.75;5017579;28;20060;-70
2021/09/24 12:09:44;;;;;;;6.20;2.35;;;;;;;21.23;60.87;101596.81;4974399;28;20087;-69
2021/09/24 12:12:21;;;;;;;5.80;2.10;;;;;;;21.13;61.10;101588.41;4909121;28;20414;-69
2021/09/24 12:14:55;;;;;;;3.00;2.03;;;;;;;21.51;61.08;101601.34;5000230;28;20085;-75
2021/09/24 12:18:09;;;;;;;5.38;2.17;;;;;;;21.11;61.06;101597.63;4955518;28;20288;-75
2021/09/24 12:21:03;;;;;;;4.72;2.13;;;;;;;21.03;61.92;101604.41;4901834;28;20175;-73
2021/09/24 12:23:31;;;;;;;3.47;2.00;;;;;;;20.69;62.53;101602.97;4998648;28;20134;-74
2021/09/24 12:29:09;;;;;;;5.10;2.00;;;;;;;21.44;62.28;101598.13;4842628;28;20363;-73
2021/09/24 12:31:43;;;;;;;7.18;2.30;;;;;;;21.43;61.59;101603.66;4988906;28;20109;-71
2021/09/24 12:34:31;;;;;;;6.35;2.20;;;;;;;21.25;61.26;101593.03;4982293;28;20490;-73
2021/09/24 12:37:43;;;;;;;5.07;2.00;;;;;;;22.10;59.02;101592.84;4838873;28;20267;-73
2021/09/24 12:40:12;;;;;;;5.43;2.70;;;;;;;21.41;59.61;101582.03;4987111;28;20525;-75
2021/09/24 12:42:48;;;;;;;3.65;2.22;;;;;;;21.35;59.91;101597.84;4991477;28;20042;-75
2021/09/24 12:46:10;;;;;;;4.25;2.33;;;;;;;21.16;60.54;101590.91;4846782;28;20432;-72
2021/09/24 12:48:46;;;;;;;8.02;2.95;;;;;;;21.19;60.55;101585.28;4843649;28;20463;-72
2021/09/24 12:51:23;;;;;;;5.45;3.05;;;;;;;21.41;60.10;101583.88;4826715;28;20459;-73
2021/09/24 12:53:53;;;;;;;5.60;3.25;;;;;;;21.36;59.83;101583.31;4981137;28;20058;-73
2021/09/24 12:56:30;;;;;;;8.23;4.00;;;;;;;21.23;60.97;101581.41;4978161;28;20050;-75
2021/09/24 12:59:09;;;;;;;5.32;3.38;;;;;;;21.42;60.18;101597.38;4833870;28;20105;-75
2021/09/24 13:02:00;;;;;;;;;;;;;;;21.49;60.94;101591.53;4852863;28;20646;-73
2021/09/24 13:04:59;;;;;;;14.68;3.97;;;;;;;21.51;60.91;101598.63;4866900;28;20316;-75
2021/09/24 13:07:29;;;;;;;7.38;3.85;;;;;;;21.51;61.05;101603.19;4914173;28;20097;-75
2021/09/24 13:10:05;;;;;;;7.53;3.92;;;;;;;21.75;60.11;101595.25;4980019;28;20150;-75
2021/09/24 13:12:43;;;;;;;6.07;3.88;;;;;;;21.80;61.01;101593.97;4906652;28;20689;-73
2021/09/24 13:15:17;;;;;;;7.30;3.83;;;;;;;21.54;60.67;101598.44;4876238;28;20052;-76
2021/09/24 13:17:46;;;;;;;9.27;4.10;;;;;;;21.77;61.27;101602.31;4982868;28;20046;-74
2021/09/24 13:20:20;;;;;;;8.57;3.92;;;;;;;21.58;61.85;101594.53;4948622;28;20418;-71
2021/09/24 13:23:18;;;;;;;7.80;4.20;;;;;;;21.17;63.00;101598.09;4865497;28;20191;-71
2021/09/24 13:25:54;;;;;;;7.85;4.50;;;;;;;20.83;63.74;101604.81;4975241;28;20078;-76
2021/09/24 13:28:42;;;;;;;6.70;3.63;;;;;;;20.90;64.56;101598.03;4973892;28;20058;-72
2021/09/24 13:31:21;;;;;;;10.02;3.70;;;;;;;21.44;63.02;101581.84;4863609;28;20386;-72
2021/09/24 13:33:49;;;;;;;7.72;3.65;;;;;;;21.44;63.13;101598.13;4949615;28;20082;-71
2021/09/24 13:36:19;;;;;;;9.07;3.83;;;;;;;20.93;65.24;101578.84;4974043;28;20136;-74
2021/09/24 13:38:50;;;;;;;10.07;4.35;;;;;;;20.77;65.35;101575.34;4854626;28;20445;-75
2021/09/24 13:41:23;;;;;;;8.77;3.60;;;;;;;20.84;65.34;101574.88;4899629;28;20180;-73
2021/09/24 13:43:51;;;;;;;6.00;3.80;;;;;;;20.86;64.93;101580.22;4980404;28;20487;-73
2021/09/24 13:46:32;;;;;;;7.05;3.83;;;;;;;21.19;64.72;101573.56;4913782;28;20665;-75
2021/09/24 13:49:01;;;;;;;9.38;3.85;;;;;;;21.12;64.15;101570.38;4856929;28;20446;-73
2021/09/24 13:51:29;;;;;;;10.02;4.28;;;;;;;21.18;64.01;101572.72;4981020;28;20449;-73
2021/09/24 13:54:06;;;;;;;7.13;3.30;;;;;;;21.13;64.27;101564.00;4962952;28;20163;-76
2021/09/24 13:56:41;;;;;;;9.82;4.03;;;;;;;20.68;66.51;101574.09;4859587;28;20484;-72
2021/09/24 13:59:13;;;;;;;11.73;3.90;;;;;;;20.94;65.98;101564.28;4955696;28;20247;-73
2021/09/24 14:01:43;;;;;;;8.40;4.20;;;;;;;21.11;65.77;101556.91;4991256;28;20050;-76
2021/09/24 14:04:24;;;;;;;7.50;3.60;;;;;;;21.40;65.03;101558.59;4876161;28;20661;-76
2021/09/24 14:06:54;;;;;;;7.63;3.10;;;;;;;21.19;65.65;101554.56;4905454;28;20537;-71
2021/09/24 14:09:25;;;;;;;6.38;2.97;;;;;;;21.44;65.22;101557.41;4976676;28;20057;-70
2021/09/24 14:12:04;;;;;;;10.98;2.97;;;;;;;21.03;65.03;101546.59;4923778;28;20058;-72
2021/09/24 14:14:42;;;;;;;7.60;3.25;;;;;;;20.73;66.76;101544.00;4844597;28;20727;-71
2021/09/24 14:17:14;;;;;;;6.47;2.72;;;;;;;21.02;64.69;101540.25;4903707;28;20051;-75
2021/09/24 14:19:42;;;;;;;8.10;2.78;;;;;;;21.00;64.56;101544.06;4974614;28;20061;-73
2021/09/24 14:22:11;;;;;;;8.63;2.72;;;;;;;20.98;64.68;101546.00;4900100;28;20053;-74
2021/09/24 14:24:43;;;;;;;8.15;2.60;;;;;;;21.17;63.79;101537.53;4810845;28;21363;-72
2021/09/24 14:27:13;;;;;;;7.20;2.40;;;;;;;21.08;63.51;101544.44;4979166;28;20060;-73
2021/09/24 14:29:45;;;;;;;8.32;2.30;;;;;;;21.10;63.15;101539.78;4982579;28;20046;-73
2021/09/24 14:32:25;;;;;;;9.15;2.65;;;;;;;21.12;62.90;101537.81;4803719;28;20377;-73
2021/09/24 14:34:53;;;;;;;6.45;2.30;;;;;;;21.16;63.27;101536.63;4933456;28;20050;-75
2021/09/24 14:37:22;;;;;;;6.95;2.10;;;;;;;21.57;62.21;101537.59;4975744;28;20133;-72
2021/09/24 14:39:59;;;;;;;10.98;2.70;;;;;;;21.35;62.33;101535.44;4875286;28;20544;-75